Bristolville, Ohio
Current Conditions -  °F | °C
As of 2:51 PM on Wednesday 28 Jan 2015 (Local Time) from KYNG Reporting Station
Few Clouds Few Clouds  
Wind Chill: 26°   Ceiling: Unl
Heat Index: 26°   Visibility: 10mi
Dew Point:   Wind: 0mph
Humidity: 35%   Direction: NA
Pressure: 30.28"   Gusts: NA
Location:  41.39°N, 80.87°W
Report Text: KYNG 281951Z 00000KT 10SM FEW250 M03/M17 A3028 RMK AO2 SLP277 T10331167
Loading
Personal Weather Stations






























Interactive Weather Map New forecast layout! Learn more

10-Day Weather Forecast

Advertisements
Track Severe Weather on mobile